sensor_id;sensor_type;location;lat;lon;timestamp;pressure;altitude;pressure_sealevel;temperature
63297;BMP280;49419;51.716;-4.948;2023-06-26T00:04:56;101377.53;;;18.37
63297;BMP280;49419;51.716;-4.948;2023-06-26T00:08:30;101387.91;;;18.37
63297;BMP280;49419;51.716;-4.948;2023-06-26T00:11:37;101389.69;;;18.38
63297;BMP280;49419;51.716;-4.948;2023-06-26T00:20:03;101392.28;;;18.38
63297;BMP280;49419;51.716;-4.948;2023-06-26T00:23:18;101390.53;;;18.36
63297;BMP280;49419;51.716;-4.948;2023-06-26T00:26:00;101392.22;;;18.35
63297;BMP280;49419;51.716;-4.948;2023-06-26T00:29:06;101401.75;;;18.33
63297;BMP280;49419;51.716;-4.948;2023-06-26T00:32:00;101398.28;;;18.34
63297;BMP280;49419;51.716;-4.948;2023-06-26T00:34:28;101396.47;;;18.30
63297;BMP280;49419;51.716;-4.948;2023-06-26T00:37:42;101387.81;;;18.30
63297;BMP280;49419;51.716;-4.948;2023-06-26T00:43:34;101386.84;;;18.25
63297;BMP280;49419;51.716;-4.948;2023-06-26T01:05:56;101413.44;;;18.10
63297;BMP280;49419;51.716;-4.948;2023-06-26T01:40:36;101418.16;;;17.87
63297;BMP280;49419;51.716;-4.948;2023-06-26T04:23:03;101536.50;;;17.03
63297;BMP280;49419;51.716;-4.948;2023-06-26T04:26:24;101537.44;;;17.05
63297;BMP280;49419;51.716;-4.948;2023-06-26T05:30:57;101564.47;;;18.73
63297;BMP280;49419;51.716;-4.948;2023-06-26T05:33:36;101555.91;;;18.79
63297;BMP280;49419;51.716;-4.948;2023-06-26T06:07:50;101587.56;;;19.58
63297;BMP280;49419;51.716;-4.948;2023-06-26T06:10:37;101591.97;;;19.61
63297;BMP280;49419;51.716;-4.948;2023-06-26T06:13:27;101599.66;;;19.53
63297;BMP280;49419;51.716;-4.948;2023-06-26T06:21:37;101612.25;;;19.28
63297;BMP280;49419;51.716;-4.948;2023-06-26T06:27:52;101615.97;;;19.40
63297;BMP280;49419;51.716;-4.948;2023-06-26T07:32:37;101657.97;;;19.64
63297;BMP280;49419;51.716;-4.948;2023-06-26T08:01:32;101667.16;;;19.94
63297;BMP280;49419;51.716;-4.948;2023-06-26T08:07:01;101682.06;;;20.02
63297;BMP280;49419;51.716;-4.948;2023-06-26T08:12:23;101661.13;;;19.98
63297;BMP280;49419;51.716;-4.948;2023-06-26T08:15:13;101673.25;;;19.96
63297;BMP280;49419;51.716;-4.948;2023-06-26T08:20:11;101678.56;;;20.03
63297;BMP280;49419;51.716;-4.948;2023-06-26T08:23:05;101677.81;;;20.10
63297;BMP280;49419;51.716;-4.948;2023-06-26T08:25:39;101670.75;;;20.03
63297;BMP280;49419;51.716;-4.948;2023-06-26T08:28:10;101680.22;;;19.96
63297;BMP280;49419;51.716;-4.948;2023-06-26T08:33:53;101684.56;;;19.97
63297;BMP280;49419;51.716;-4.948;2023-06-26T08:36:25;101679.44;;;20.02
63297;BMP280;49419;51.716;-4.948;2023-06-26T08:39:08;101682.28;;;20.20
63297;BMP280;49419;51.716;-4.948;2023-06-26T08:41:54;101674.66;;;20.33
63297;BMP280;49419;51.716;-4.948;2023-06-26T08:44:27;101680.91;;;20.46
63297;BMP280;49419;51.716;-4.948;2023-06-26T08:46:53;101659.25;;;20.53
63297;BMP280;49419;51.716;-4.948;2023-06-26T08:52:50;101677.50;;;20.53
63297;BMP280;49419;51.716;-4.948;2023-06-26T08:55:27;101680.94;;;20.49
63297;BMP280;49419;51.716;-4.948;2023-06-26T08:57:55;101692.25;;;20.52
63297;BMP280;49419;51.716;-4.948;2023-06-26T09:00:35;101674.91;;;20.53
63297;BMP280;49419;51.716;-4.948;2023-06-26T09:03:06;101701.97;;;20.61
63297;BMP280;49419;51.716;-4.948;2023-06-26T09:05:37;101702.94;;;20.68
63297;BMP280;49419;51.716;-4.948;2023-06-26T09:08:04;101712.47;;;20.66
63297;BMP280;49419;51.716;-4.948;2023-06-26T09:10:32;101709.91;;;20.69
63297;BMP280;49419;51.716;-4.948;2023-06-26T09:13:11;101703.84;;;20.73
63297;BMP280;49419;51.716;-4.948;2023-06-26T09:15:45;101709.09;;;20.76
63297;BMP280;49419;51.716;-4.948;2023-06-26T09:18:25;101716.16;;;20.85
63297;BMP280;49419;51.716;-4.948;2023-06-26T09:20:52;101694.47;;;20.90
63297;BMP280;49419;51.716;-4.948;2023-06-26T09:23:21;101714.59;;;20.98
63297;BMP280;49419;51.716;-4.948;2023-06-26T09:25:50;101707.69;;;21.05
63297;BMP280;49419;51.716;-4.948;2023-06-26T09:28:37;101708.59;;;21.08
63297;BMP280;49419;51.716;-4.948;2023-06-26T09:31:19;101700.81;;;21.14
63297;BMP280;49419;51.716;-4.948;2023-06-26T09:33:46;101717.38;;;21.16
63297;BMP280;49419;51.716;-4.948;2023-06-26T09:36:22;101722.59;;;21.16
63297;BMP280;49419;51.716;-4.948;2023-06-26T09:38:52;101725.22;;;21.16
63297;BMP280;49419;51.716;-4.948;2023-06-26T09:41:22;101731.34;;;21.21
63297;BMP280;49419;51.716;-4.948;2023-06-26T09:43:50;101750.72;;;21.39
63297;BMP280;49419;51.716;-4.948;2023-06-26T09:46:29;101745.63;;;21.53
63297;BMP280;49419;51.716;-4.948;2023-06-26T09:49:04;101723.94;;;21.61
63297;BMP280;49419;51.716;-4.948;2023-06-26T09:51:39;101726.72;;;21.80
63297;BMP280;49419;51.716;-4.948;2023-06-26T09:54:09;101734.69;;;21.99
63297;BMP280;49419;51.716;-4.948;2023-06-26T09:56:43;101741.66;;;22.00
63297;BMP280;49419;51.716;-4.948;2023-06-26T09:59:15;101738.97;;;21.87
63297;BMP280;49419;51.716;-4.948;2023-06-26T10:01:45;101748.53;;;21.87
63297;BMP280;49419;51.716;-4.948;2023-06-26T10:04:11;101737.19;;;21.85
63297;BMP280;49419;51.716;-4.948;2023-06-26T10:06:41;101742.44;;;21.85
63297;BMP280;49419;51.716;-4.948;2023-06-26T10:09:09;101749.41;;;21.87
63297;BMP280;49419;51.716;-4.948;2023-06-26T10:11:47;101758.16;;;21.93
63297;BMP280;49419;51.716;-4.948;2023-06-26T10:14:17;101759.84;;;21.89
63297;BMP280;49419;51.716;-4.948;2023-06-26T10:16:48;101752.06;;;21.94
63297;BMP280;49419;51.716;-4.948;2023-06-26T10:19:20;101780.91;;;22.06
63297;BMP280;49419;51.716;-4.948;2023-06-26T10:21:53;101769.56;;;22.04
63297;BMP280;49419;51.716;-4.948;2023-06-26T10:24:31;101771.25;;;21.98
63297;BMP280;49419;51.716;-4.948;2023-06-26T10:27:14;101773.94;;;22.07
63297;BMP280;49419;51.716;-4.948;2023-06-26T10:29:42;101774.94;;;22.19
63297;BMP280;49419;51.716;-4.948;2023-06-26T10:32:11;101786.31;;;22.28
63297;BMP280;49419;51.716;-4.948;2023-06-26T10:34:38;101770.69;;;22.39
63297;BMP280;49419;51.716;-4.948;2023-06-26T10:37:03;101775.97;;;22.42
63297;BMP280;49419;51.716;-4.948;2023-06-26T10:40:03;101781.25;;;22.49
63297;BMP280;49419;51.716;-4.948;2023-06-26T10:42:47;101771.66;;;22.50
63297;BMP280;49419;51.716;-4.948;2023-06-26T10:45:28;101783.78;;;22.39
63297;BMP280;49419;51.716;-4.948;2023-06-26T10:47:57;101789.81;;;22.27
63297;BMP280;49419;51.716;-4.948;2023-06-26T10:50:34;101787.16;;;22.20
63297;BMP280;49419;51.716;-4.948;2023-06-26T10:53:23;101788.00;;;22.16
63297;BMP280;49419;51.716;-4.948;2023-06-26T10:56:01;101786.22;;;22.14
63297;BMP280;49419;51.716;-4.948;2023-06-26T10:58:47;101792.38;;;22.20
63297;BMP280;49419;51.716;-4.948;2023-06-26T11:01:27;101788.91;;;22.27
63297;BMP280;49419;51.716;-4.948;2023-06-26T11:04:21;101782.03;;;22.35
63297;BMP280;49419;51.716;-4.948;2023-06-26T11:07:15;101796.78;;;22.26
63297;BMP280;49419;51.716;-4.948;2023-06-26T11:10:02;101795.97;;;22.32
63297;BMP280;49419;51.716;-4.948;2023-06-26T11:12:44;101793.44;;;22.53
63297;BMP280;49419;51.716;-4.948;2023-06-26T11:15:30;101793.59;;;22.78
63297;BMP280;49419;51.716;-4.948;2023-06-26T11:18:08;101787.56;;;22.91
63297;BMP280;49419;51.716;-4.948;2023-06-26T11:20:35;101793.72;;;22.99
63297;BMP280;49419;51.716;-4.948;2023-06-26T11:23:13;101798.97;;;22.99
63297;BMP280;49419;51.716;-4.948;2023-06-26T11:25:48;101805.91;;;22.95
63297;BMP280;49419;51.716;-4.948;2023-06-26T11:28:21;101806.78;;;22.94
63297;BMP280;49419;51.716;-4.948;2023-06-26T11:31:07;101800.69;;;22.95
63297;BMP280;49419;51.716;-4.948;2023-06-26T11:33:47;101813.75;;;22.91
63297;BMP280;49419;51.716;-4.948;2023-06-26T11:36:25;101802.41;;;22.88
63297;BMP280;49419;51.716;-4.948;2023-06-26T11:39:00;101807.69;;;22.96
63297;BMP280;49419;51.716;-4.948;2023-06-26T11:41:28;101820.81;;;23.07
63297;BMP280;49419;51.716;-4.948;2023-06-26T11:44:16;101812.09;;;23.14
63297;BMP280;49419;51.716;-4.948;2023-06-26T11:46:46;101817.38;;;23.21
63297;BMP280;49419;51.716;-4.948;2023-06-26T11:49:23;101819.97;;;23.23
63297;BMP280;49419;51.716;-4.948;2023-06-26T11:51:55;101813.88;;;23.29
63297;BMP280;49419;51.716;-4.948;2023-06-26T11:54:27;101806.00;;;23.19
63297;BMP280;49419;51.716;-4.948;2023-06-26T11:57:06;101826.09;;;23.19
63297;BMP280;49419;51.716;-4.948;2023-06-26T11:59:38;101819.97;;;23.17
63297;BMP280;49419;51.716;-4.948;2023-06-26T12:02:22;101812.09;;;23.17
63297;BMP280;49419;51.716;-4.948;2023-06-26T12:05:04;101822.63;;;23.28
63297;BMP280;49419;51.716;-4.948;2023-06-26T12:07:50;101819.16;;;23.35
63297;BMP280;49419;51.716;-4.948;2023-06-26T12:10:17;101833.09;;;23.34
63297;BMP280;49419;51.716;-4.948;2023-06-26T12:12:45;101836.59;;;23.33
63297;BMP280;49419;51.716;-4.948;2023-06-26T12:15:15;101831.31;;;23.22
63297;BMP280;49419;51.716;-4.948;2023-06-26T12:17:52;101842.69;;;23.26
63297;BMP280;49419;51.716;-4.948;2023-06-26T12:20:23;101833.06;;;23.23
63297;BMP280;49419;51.716;-4.948;2023-06-26T12:22:52;101839.19;;;23.24
63297;BMP280;49419;51.716;-4.948;2023-06-26T12:25:39;101836.59;;;23.30
63297;BMP280;49419;51.716;-4.948;2023-06-26T12:28:18;101833.97;;;23.32
63297;BMP280;49419;51.716;-4.948;2023-06-26T12:31:20;101843.59;;;23.43
63297;BMP280;49419;51.716;-4.948;2023-06-26T12:34:09;101821.78;;;23.46
63297;BMP280;49419;51.716;-4.948;2023-06-26T12:37:08;101836.63;;;23.48
63297;BMP280;49419;51.716;-4.948;2023-06-26T12:39:49;101823.63;;;23.58
63297;BMP280;49419;51.716;-4.948;2023-06-26T12:42:27;101814.88;;;23.59
63297;BMP280;49419;51.716;-4.948;2023-06-26T12:44:56;101821.88;;;23.74
63297;BMP280;49419;51.716;-4.948;2023-06-26T12:47:41;101822.75;;;23.85
63297;BMP280;49419;51.716;-4.948;2023-06-26T12:50:11;101821.88;;;23.81
63297;BMP280;49419;51.716;-4.948;2023-06-26T12:52:44;101827.09;;;23.80
63297;BMP280;49419;51.716;-4.948;2023-06-26T12:55:15;101821.88;;;23.81
63297;BMP280;49419;51.716;-4.948;2023-06-26T12:58:03;101823.63;;;23.94
63297;BMP280;49419;51.716;-4.948;2023-06-26T13:00:37;101820.13;;;23.89
63297;BMP280;49419;51.716;-4.948;2023-06-26T13:03:03;101830.63;;;23.92
63297;BMP280;49419;51.716;-4.948;2023-06-26T13:05:39;101829.75;;;23.90
63297;BMP280;49419;51.716;-4.948;2023-06-26T13:08:10;101827.13;;;23.93
63297;BMP280;49419;51.716;-4.948;2023-06-26T13:10:37;101823.63;;;23.84
63297;BMP280;49419;51.716;-4.948;2023-06-26T13:13:05;101821.00;;;23.82
63297;BMP280;49419;51.716;-4.948;2023-06-26T13:15:37;101838.47;;;23.89
63297;BMP280;49419;51.716;-4.948;2023-06-26T13:18:10;101821.00;;;23.88
63297;BMP280;49419;51.716;-4.948;2023-06-26T13:20:38;101833.25;;;24.01
63297;BMP280;49419;51.716;-4.948;2023-06-26T13:23:09;101838.50;;;24.11
63297;BMP280;49419;51.716;-4.948;2023-06-26T13:25:35;101821.88;;;24.11
63297;BMP280;49419;51.716;-4.948;2023-06-26T13:28:01;101825.41;;;24.30
63297;BMP280;49419;51.716;-4.948;2023-06-26T13:30:26;101825.38;;;24.41
63297;BMP280;49419;51.716;-4.948;2023-06-26T13:32:59;101828.84;;;24.52
63297;BMP280;49419;51.716;-4.948;2023-06-26T13:35:31;101825.34;;;24.60
63297;BMP280;49419;51.716;-4.948;2023-06-26T13:37:56;101830.59;;;24.64
63297;BMP280;49419;51.716;-4.948;2023-06-26T13:40:22;101835.81;;;24.67
63297;BMP280;49419;51.716;-4.948;2023-06-26T13:42:50;101831.41;;;24.77
63297;BMP280;49419;51.716;-4.948;2023-06-26T13:45:25;101841.94;;;24.78
63297;BMP280;49419;51.716;-4.948;2023-06-26T13:47:53;101838.44;;;24.73
63297;BMP280;49419;51.716;-4.948;2023-06-26T13:50:29;101845.41;;;24.87
63297;BMP280;49419;51.716;-4.948;2023-06-26T13:53:05;101839.19;;;25.12
63297;BMP280;49419;51.716;-4.948;2023-06-26T13:55:44;101835.56;;;25.35
63297;BMP280;49419;51.716;-4.948;2023-06-26T13:58:22;101837.22;;;25.58
63297;BMP280;49419;51.716;-4.948;2023-06-26T14:00:58;101836.38;;;25.55
63297;BMP280;49419;51.716;-4.948;2023-06-26T14:03:38;101862.91;;;24.96
63297;BMP280;49419;51.716;-4.948;2023-06-26T14:06:13;101862.13;;;24.36
63297;BMP280;49419;51.716;-4.948;2023-06-26T14:08:59;101863.84;;;24.14
63297;BMP280;49419;51.716;-4.948;2023-06-26T14:11:25;101869.06;;;23.99
63297;BMP280;49419;51.716;-4.948;2023-06-26T14:14:07;101864.69;;;23.80
63297;BMP280;49419;51.716;-4.948;2023-06-26T14:16:53;101870.75;;;23.56
63297;BMP280;49419;51.716;-4.948;2023-06-26T14:19:21;101868.03;;;23.33
63297;BMP280;49419;51.716;-4.948;2023-06-26T14:21:47;101878.44;;;23.20
63297;BMP280;49419;51.716;-4.948;2023-06-26T14:24:29;101878.41;;;23.07
63297;BMP280;49419;51.716;-4.948;2023-06-26T14:26:57;101867.03;;;23.05
63297;BMP280;49419;51.716;-4.948;2023-06-26T14:29:28;101864.56;;;23.42
63297;BMP280;49419;51.716;-4.948;2023-06-26T14:32:23;101856.81;;;23.68
63297;BMP280;49419;51.716;-4.948;2023-06-26T14:37:42;101859.50;;;24.29
63297;BMP280;49419;51.716;-4.948;2023-06-26T14:46:29;101834.63;;;25.48
63297;BMP280;49419;51.716;-4.948;2023-06-26T15:58:30;101831.78;;;27.50
63297;BMP280;49419;51.716;-4.948;2023-06-26T16:01:40;101825.06;;;26.52
63297;BMP280;49419;51.716;-4.948;2023-06-26T16:04:30;101821.88;;;26.17
63297;BMP280;49419;51.716;-4.948;2023-06-26T17:32:52;101802.41;;;22.92
63297;BMP280;49419;51.716;-4.948;2023-06-26T19:19:01;101865.34;;;20.57
63297;BMP280;49419;51.716;-4.948;2023-06-26T19:21:44;101860.97;;;20.56
63297;BMP280;49419;51.716;-4.948;2023-06-26T20:35:16;101894.59;;;19.90
63297;BMP280;49419;51.716;-4.948;2023-06-26T20:46:09;101901.69;;;19.96
63297;BMP280;49419;51.716;-4.948;2023-06-26T20:49:12;101904.16;;;19.88
63297;BMP280;49419;51.716;-4.948;2023-06-26T20:52:16;101907.72;;;19.93
63297;BMP280;49419;51.716;-4.948;2023-06-26T20:55:22;101902.41;;;19.90
63297;BMP280;49419;51.716;-4.948;2023-06-26T21:04:18;101909.34;;;19.88
63297;BMP280;49419;51.716;-4.948;2023-06-26T21:07:09;101904.06;;;19.84
63297;BMP280;49419;51.716;-4.948;2023-06-26T21:30:55;101906.59;;;19.81
